Aviation Digital Data Service (ADDS)

Output produced by METARs form (1224 UTC 25 June 2019)
found at http://www.aviationweather.gov/metar/data/
 
Forecast for: SLCB (COCHABAMBA/JORGE, BO)
Text: TAF SLCB 251000Z 2512/2612 00000KT 5000 FU NSC TX26/2519Z TN02/2611Z
Forecast period: 1200 to 1400 UTC 25 June 2019
Forecast type: FROM: standard forecast or significant change
Winds: calm
Visibility: 3 miles (5 km)
Ceiling: unknown
Clouds: missing
Weather: FU  (smoke)
Text: BECMG 2514/2516 26010KT 9999 NSW
Forecast period: 1400 UTC 25 June 2019 to 0200 UTC 26 June 2019
Forecast type: BECOMING: Conditions expected to become as follows by 1600 UTC 25 June 2019
Winds: from the W (260 degrees) at 12 MPH (10 knots; 5.1 m/s)
Visibility: 6 or more miles 10+ km)
Ceiling: unknown
Clouds: missing
Weather: NSW  (no significant weather)
Text: BECMG 2602/2604 00000KT FEW027 SCT070
Forecast period: 0200 to 1200 UTC 26 June 2019
Forecast type: BECOMING: Conditions expected to become as follows by 0400 UTC 26 June 2019
Winds: calm
Visibility: 6 or more miles 10+ km)
Ceiling: at least 12,000 feet AGL
Clouds: few clouds at 2700 feet AGL
scattered clouds at 7000 feet AGL
Weather: NSW  (no significant weather)